createdAt,value
2018-03-19T00:00:23.963Z,14.10
2018-03-19T00:00:55.875Z,14.10
2018-03-19T00:01:27.608Z,14.10
2018-03-19T00:01:59.368Z,14.10
2018-03-19T00:02:31.121Z,14.10
2018-03-19T00:03:02.897Z,14.10
2018-03-19T00:03:34.625Z,14.00
2018-03-19T00:04:06.378Z,14.00
2018-03-19T00:04:38.186Z,14.00
2018-03-19T00:05:09.952Z,14.00
2018-03-19T00:05:42.457Z,13.90
2018-03-19T00:06:14.193Z,13.90
2018-03-19T00:06:46.008Z,13.90
2018-03-19T00:07:18.531Z,13.90
2018-03-19T00:07:50.280Z,13.90
2018-03-19T00:08:22.033Z,13.90
2018-03-19T00:08:53.779Z,13.90
2018-03-19T00:09:25.530Z,13.90
2018-03-19T00:09:57.469Z,14.00
2018-03-19T00:10:29.229Z,13.90
2018-03-19T00:11:00.980Z,13.90
2018-03-19T00:11:33.505Z,13.90
2018-03-19T00:12:05.254Z,13.90
2018-03-19T00:12:37.002Z,13.90
2018-03-19T00:13:08.741Z,13.90
2018-03-19T00:13:40.478Z,13.90
2018-03-19T00:14:12.230Z,13.90
2018-03-19T00:14:43.995Z,14.00
2018-03-19T00:15:15.746Z,13.90
2018-03-19T00:15:48.255Z,13.90
2018-03-19T00:16:19.993Z,13.90
2018-03-19T00:16:51.804Z,13.90
2018-03-19T00:17:23.593Z,13.90
2018-03-19T00:17:55.328Z,13.90
2018-03-19T00:18:27.140Z,13.90
2018-03-19T00:18:59.060Z,13.80
2018-03-19T00:19:30.820Z,13.80
2018-03-19T00:20:02.581Z,13.80
2018-03-19T00:20:34.516Z,13.90
2018-03-19T00:21:06.262Z,13.80
2018-03-19T00:21:38.005Z,13.80
2018-03-19T00:22:10.517Z,13.80
2018-03-19T00:22:42.282Z,13.80
2018-03-19T00:23:14.029Z,13.80
2018-03-19T00:23:45.776Z,13.90
2018-03-19T00:24:17.519Z,13.90
2018-03-19T00:24:49.463Z,14.00
2018-03-19T00:25:21.220Z,14.00
2018-03-19T00:25:52.955Z,14.00
2018-03-19T00:26:24.703Z,14.00
2018-03-19T00:26:56.458Z,14.10
2018-03-19T00:27:28.200Z,14.10
2018-03-19T00:27:59.944Z,14.20
2018-03-19T00:28:31.680Z,14.10
2018-03-19T00:29:03.420Z,14.10
2018-03-19T00:29:35.165Z,14.10
2018-03-19T00:30:06.953Z,14.10
2018-03-19T00:30:38.714Z,14.10
2018-03-19T00:31:11.224Z,14.20
2018-03-19T00:31:42.974Z,14.20
2018-03-19T00:32:14.742Z,14.20
2018-03-19T00:32:46.480Z,14.20
2018-03-19T00:33:18.214Z,14.10
2018-03-19T00:33:49.953Z,14.10
2018-03-19T00:34:21.721Z,14.10
2018-03-19T00:34:53.443Z,14.00
2018-03-19T00:35:25.192Z,14.00
2018-03-19T00:35:58.450Z,14.00
2018-03-19T00:36:30.205Z,14.00
2018-03-19T00:37:02.189Z,14.00
2018-03-19T00:37:33.907Z,14.00
2018-03-19T00:38:05.671Z,14.00
2018-03-19T00:38:37.412Z,14.00
2018-03-19T00:39:09.149Z,14.00
2018-03-19T00:39:40.905Z,14.10
2018-03-19T00:40:12.641Z,14.00
2018-03-19T00:40:44.390Z,14.10
2018-03-19T00:41:16.135Z,14.10
2018-03-19T00:41:47.862Z,14.10
2018-03-19T00:42:19.668Z,14.10
2018-03-19T00:42:51.411Z,14.10
2018-03-19T00:43:23.158Z,14.10
2018-03-19T00:43:54.895Z,14.10
2018-03-19T00:44:26.650Z,14.00
2018-03-19T00:44:58.382Z,14.00
2018-03-19T00:45:30.127Z,14.10
2018-03-19T00:46:01.878Z,14.10
2018-03-19T00:46:33.622Z,14.10
2018-03-19T00:47:05.374Z,14.00
2018-03-19T00:47:37.109Z,14.00
2018-03-19T00:48:08.860Z,14.10
2018-03-19T00:48:40.605Z,14.10
2018-03-19T00:49:12.337Z,14.10
2018-03-19T00:49:44.086Z,14.10
2018-03-19T00:50:15.827Z,14.10
2018-03-19T00:50:47.572Z,14.20
2018-03-19T00:51:19.321Z,14.20
2018-03-19T00:51:51.070Z,14.20
2018-03-19T00:52:22.866Z,14.10
2018-03-19T00:52:54.631Z,14.10
2018-03-19T00:53:27.140Z,14.10
2018-03-19T00:53:58.882Z,14.10
2018-03-19T00:54:30.662Z,14.10
2018-03-19T00:55:02.405Z,14.10
2018-03-19T00:55:34.145Z,14.10
2018-03-19T00:56:05.900Z,14.10
2018-03-19T00:56:37.639Z,14.10
2018-03-19T00:57:09.377Z,14.10
2018-03-19T00:57:41.133Z,14.10
2018-03-19T00:58:12.899Z,14.10
2018-03-19T00:58:45.405Z,14.10
2018-03-19T00:59:17.148Z,14.10
2018-03-19T00:59:48.925Z,14.10
2018-03-19T01:00:20.846Z,14.10
2018-03-19T01:00:52.564Z,14.20
2018-03-19T01:01:24.315Z,14.20
2018-03-19T01:01:56.054Z,14.20
2018-03-19T01:02:27.805Z,14.10
2018-03-19T01:02:59.536Z,14.20
2018-03-19T01:03:31.280Z,14.20
2018-03-19T01:04:03.029Z,14.20
2018-03-19T01:04:34.765Z,14.20
2018-03-19T01:05:06.496Z,14.20
2018-03-19T01:05:38.242Z,14.10
2018-03-19T01:06:10.769Z,14.00
2018-03-19T01:06:42.503Z,14.00
2018-03-19T01:07:14.263Z,14.00
2018-03-19T01:07:46.013Z,14.10
2018-03-19T01:08:17.785Z,14.10
2018-03-19T01:08:49.530Z,14.10
2018-03-19T01:09:22.044Z,14.10
2018-03-19T01:09:53.783Z,14.10
2018-03-19T01:10:25.542Z,14.10
2018-03-19T01:10:57.283Z,14.00
2018-03-19T01:11:29.032Z,14.00
2018-03-19T01:12:00.764Z,14.00
2018-03-19T01:12:32.516Z,13.90
2018-03-19T01:13:04.254Z,13.90
2018-03-19T01:13:36.012Z,13.90
2018-03-19T01:14:07.790Z,13.90
2018-03-19T01:14:40.360Z,14.00
2018-03-19T01:15:12.103Z,14.00
2018-03-19T01:15:43.867Z,14.00
2018-03-19T01:16:15.616Z,14.00
2018-03-19T01:16:47.355Z,14.00
2018-03-19T01:17:19.112Z,14.00
2018-03-19T01:17:50.852Z,14.00
2018-03-19T01:18:22.606Z,14.00
2018-03-19T01:18:54.388Z,14.00
2018-03-19T01:19:26.128Z,14.00
2018-03-19T01:19:58.643Z,14.00
2018-03-19T01:20:30.387Z,14.00
2018-03-19T01:21:02.901Z,14.10
2018-03-19T01:21:34.630Z,14.10
2018-03-19T01:22:06.378Z,14.10
2018-03-19T01:22:38.119Z,14.10
2018-03-19T01:23:09.882Z,14.10
2018-03-19T01:23:41.605Z,14.10
2018-03-19T01:24:13.340Z,14.10
2018-03-19T01:24:45.088Z,14.20
2018-03-19T01:25:16.831Z,14.20
2018-03-19T01:25:48.596Z,14.20
2018-03-19T01:26:20.330Z,14.20
2018-03-19T01:26:52.092Z,14.20
2018-03-19T01:27:23.844Z,14.20
2018-03-19T01:27:55.725Z,14.20
2018-03-19T01:28:27.461Z,14.20
2018-03-19T01:28:59.204Z,14.20
2018-03-19T01:29:30.960Z,14.20
2018-03-19T01:30:02.852Z,14.10
2018-03-19T01:30:35.362Z,14.10
2018-03-19T01:31:07.086Z,14.00
2018-03-19T01:31:38.834Z,14.10
2018-03-19T01:32:10.601Z,14.10
2018-03-19T01:32:42.561Z,14.10
2018-03-19T01:33:15.477Z,14.00
2018-03-19T01:33:47.205Z,14.00
2018-03-19T01:34:18.956Z,14.00
2018-03-19T01:34:51.525Z,14.00
2018-03-19T01:35:23.285Z,14.00
2018-03-19T01:35:55.951Z,14.00
2018-03-19T01:36:27.729Z,14.00
2018-03-19T01:36:59.744Z,13.90
2018-03-19T01:37:31.809Z,14.00
2018-03-19T01:38:03.604Z,14.00
2018-03-19T01:38:35.432Z,14.10
2018-03-19T01:39:07.440Z,14.10
2018-03-19T01:39:40.416Z,14.10
2018-03-19T01:40:12.235Z,14.10
2018-03-19T01:40:45.018Z,14.10
2018-03-19T01:41:16.928Z,14.10
2018-03-19T01:41:49.305Z,14.10
2018-03-19T01:42:21.105Z,14.20
2018-03-19T01:42:53.974Z,14.20
2018-03-19T01:43:26.015Z,14.20
2018-03-19T01:43:57.889Z,14.10
2018-03-19T01:44:30.415Z,14.00
2018-03-19T01:45:02.486Z,14.00
2018-03-19T01:45:34.389Z,14.10
2018-03-19T01:46:06.153Z,14.10
2018-03-19T01:46:37.945Z,14.10
2018-03-19T01:47:09.815Z,14.10
2018-03-19T01:47:42.327Z,14.10
2018-03-19T01:48:14.061Z,14.10
2018-03-19T01:48:46.056Z,14.00
2018-03-19T01:49:17.890Z,13.90
2018-03-19T01:49:50.555Z,13.90
2018-03-19T01:50:22.356Z,13.90
2018-03-19T01:50:54.124Z,13.90
2018-03-19T01:51:25.880Z,14.00
2018-03-19T01:51:59.166Z,13.90
2018-03-19T01:52:30.933Z,13.90
2018-03-19T01:53:02.772Z,14.00
2018-03-19T01:53:35.421Z,14.10
2018-03-19T01:54:07.312Z,14.00
2018-03-19T01:54:39.063Z,14.10
2018-03-19T01:55:11.847Z,14.00
2018-03-19T01:55:43.630Z,14.00
2018-03-19T01:56:15.560Z,14.00
2018-03-19T01:56:47.291Z,14.10
2018-03-19T01:57:19.060Z,14.10
2018-03-19T01:57:50.989Z,14.10
2018-03-19T01:58:22.729Z,14.10
2018-03-19T01:58:54.472Z,14.00
2018-03-19T01:59:26.229Z,14.10
2018-03-19T01:59:58.036Z,14.10
2018-03-19T02:00:30.725Z,14.10
2018-03-19T02:01:02.466Z,14.10
2018-03-19T02:01:34.208Z,14.10
2018-03-19T02:02:05.954Z,14.00
2018-03-19T02:02:37.691Z,14.00
2018-03-19T02:03:09.495Z,14.00
2018-03-19T02:03:42.006Z,14.00
2018-03-19T02:04:13.749Z,14.00
2018-03-19T02:04:45.497Z,14.10
2018-03-19T02:05:17.266Z,14.10
2018-03-19T02:05:48.996Z,14.00
2018-03-19T02:06:20.747Z,14.10
2018-03-19T02:06:52.690Z,14.10
2018-03-19T02:07:24.430Z,14.10
2018-03-19T02:07:56.172Z,14.10
2018-03-19T02:08:27.926Z,14.10
2018-03-19T02:08:59.664Z,14.10
2018-03-19T02:09:31.400Z,14.10
2018-03-19T02:10:03.152Z,14.10
2018-03-19T02:10:34.889Z,14.10
2018-03-19T02:11:06.637Z,14.20
2018-03-19T02:11:38.389Z,14.10
2018-03-19T02:12:10.123Z,14.20
2018-03-19T02:12:41.981Z,14.10
2018-03-19T02:13:13.740Z,14.10
2018-03-19T02:13:45.474Z,14.00
2018-03-19T02:14:17.214Z,14.00
2018-03-19T02:14:48.961Z,13.90
2018-03-19T02:15:20.719Z,14.00
2018-03-19T02:15:52.464Z,14.00
2018-03-19T02:16:24.235Z,13.90
2018-03-19T02:16:55.958Z,13.90
2018-03-19T02:17:27.697Z,14.00
2018-03-19T02:17:59.441Z,14.00
2018-03-19T02:18:31.198Z,14.00
2018-03-19T02:19:02.947Z,14.00
2018-03-19T02:19:34.680Z,14.10
2018-03-19T02:20:06.420Z,14.10
2018-03-19T02:20:38.169Z,14.00
2018-03-19T02:21:09.920Z,14.10
2018-03-19T02:21:41.664Z,14.10
2018-03-19T02:22:13.405Z,14.10
2018-03-19T02:22:45.154Z,14.10
2018-03-19T02:23:16.890Z,14.10
2018-03-19T02:23:48.633Z,14.10
2018-03-19T02:24:20.394Z,14.10
2018-03-19T02:24:52.906Z,14.10
2018-03-19T02:25:25.600Z,14.10
2018-03-19T02:25:57.340Z,14.10
2018-03-19T02:26:29.085Z,14.10
2018-03-19T02:27:00.826Z,14.10
2018-03-19T02:27:32.576Z,14.00
2018-03-19T02:28:04.324Z,14.00
2018-03-19T02:28:36.066Z,14.00
2018-03-19T02:29:07.813Z,14.00
2018-03-19T02:29:39.554Z,14.10
2018-03-19T02:30:11.312Z,14.00
2018-03-19T02:30:43.258Z,14.00
2018-03-19T02:31:15.016Z,13.90
2018-03-19T02:31:47.549Z,13.90
2018-03-19T02:32:19.547Z,13.90
2018-03-19T02:32:52.114Z,13.90
2018-03-19T02:33:24.007Z,13.90
2018-03-19T02:33:55.952Z,13.90
2018-03-19T02:34:27.718Z,13.90
2018-03-19T02:34:59.454Z,14.00
2018-03-19T02:35:31.192Z,14.00
2018-03-19T02:36:02.958Z,14.00
2018-03-19T02:36:35.450Z,14.00
2018-03-19T02:37:07.204Z,13.90
2018-03-19T02:37:39.004Z,14.00
2018-03-19T02:38:10.714Z,14.00
2018-03-19T02:38:42.489Z,14.00
2018-03-19T02:39:14.247Z,14.00
2018-03-19T02:39:46.034Z,14.00
2018-03-19T02:40:17.968Z,14.00
2018-03-19T02:40:49.711Z,14.00
2018-03-19T02:41:21.475Z,14.00
2018-03-19T02:41:53.236Z,14.00
2018-03-19T02:42:24.969Z,14.00
2018-03-19T02:42:56.705Z,14.00
2018-03-19T02:43:28.524Z,14.00
2018-03-19T02:44:01.028Z,14.00
2018-03-19T02:44:32.766Z,14.00
2018-03-19T02:45:04.509Z,14.00
2018-03-19T02:45:36.257Z,14.10
2018-03-19T02:46:08.008Z,14.00
2018-03-19T02:46:39.755Z,14.00
2018-03-19T02:47:11.493Z,14.00
2018-03-19T02:47:43.244Z,13.90
2018-03-19T02:48:14.990Z,13.90
2018-03-19T02:48:46.735Z,13.90
2018-03-19T02:49:18.637Z,13.90
2018-03-19T02:49:51.139Z,14.00
2018-03-19T02:50:22.908Z,13.90
2018-03-19T02:50:54.649Z,14.00
2018-03-19T02:51:26.415Z,14.00
2018-03-19T02:51:58.242Z,14.00
2018-03-19T02:52:30.115Z,14.00
2018-03-19T02:53:02.052Z,14.00
2018-03-19T02:53:33.816Z,14.00
2018-03-19T02:54:06.339Z,14.00
2018-03-19T02:54:38.090Z,13.90
2018-03-19T02:55:09.833Z,14.00
2018-03-19T02:55:41.584Z,14.00
2018-03-19T02:56:13.338Z,14.00
2018-03-19T02:56:45.111Z,14.00
2018-03-19T02:57:17.629Z,14.00
2018-03-19T02:57:49.363Z,14.00
2018-03-19T02:58:21.117Z,14.00
2018-03-19T02:58:52.867Z,14.00
2018-03-19T02:59:24.626Z,14.00
2018-03-19T02:59:56.371Z,14.00
2018-03-19T03:00:28.108Z,14.00
2018-03-19T03:00:59.859Z,14.00
2018-03-19T03:01:31.604Z,14.00
2018-03-19T03:02:03.354Z,14.00
2018-03-19T03:02:35.091Z,14.00
2018-03-19T03:03:06.833Z,14.00
2018-03-19T03:03:38.598Z,13.90
2018-03-19T03:04:10.545Z,14.00
2018-03-19T03:04:42.280Z,13.90
2018-03-19T03:05:14.796Z,13.90
2018-03-19T03:05:46.531Z,13.90
2018-03-19T03:06:18.339Z,14.00
2018-03-19T03:06:50.063Z,14.00
2018-03-19T03:07:21.843Z,14.00
2018-03-19T03:07:53.614Z,14.00
2018-03-19T03:08:25.349Z,14.00
2018-03-19T03:08:57.093Z,14.10
2018-03-19T03:09:28.841Z,14.10
2018-03-19T03:10:00.605Z,14.10
2018-03-19T03:10:32.362Z,14.10
2018-03-19T03:11:04.094Z,14.10
2018-03-19T03:11:35.857Z,14.00
2018-03-19T03:12:07.604Z,14.00
2018-03-19T03:12:39.341Z,14.00
2018-03-19T03:13:11.088Z,14.00
2018-03-19T03:13:42.972Z,13.90
2018-03-19T03:14:15.488Z,13.90
2018-03-19T03:14:47.239Z,13.80
2018-03-19T03:15:18.975Z,13.80
2018-03-19T03:15:50.738Z,13.80
2018-03-19T03:16:22.480Z,13.90
2018-03-19T03:16:54.248Z,13.90
2018-03-19T03:17:25.992Z,13.90
2018-03-19T03:17:58.500Z,13.90
2018-03-19T03:18:30.293Z,13.90
2018-03-19T03:19:02.044Z,13.90
2018-03-19T03:19:34.549Z,14.00
2018-03-19T03:20:06.293Z,13.90
2018-03-19T03:20:38.032Z,13.90
2018-03-19T03:21:09.783Z,14.00
2018-03-19T03:21:41.525Z,14.00
2018-03-19T03:22:13.272Z,14.00
2018-03-19T03:22:45.030Z,14.00
2018-03-19T03:23:16.782Z,14.00
2018-03-19T03:23:48.545Z,13.90
2018-03-19T03:24:20.287Z,14.00
2018-03-19T03:24:52.029Z,14.00
2018-03-19T03:25:23.771Z,14.00
2018-03-19T03:25:55.503Z,13.90
2018-03-19T03:26:27.248Z,14.00
2018-03-19T03:26:58.991Z,14.00
2018-03-19T03:27:30.752Z,14.00
2018-03-19T03:28:02.519Z,14.00
2018-03-19T03:28:34.251Z,14.00
2018-03-19T03:29:05.984Z,14.00
2018-03-19T03:29:37.781Z,14.00
2018-03-19T03:30:09.513Z,14.00
2018-03-19T03:30:42.026Z,14.00
2018-03-19T03:31:13.816Z,14.00
2018-03-19T03:31:46.356Z,14.00
2018-03-19T03:32:18.279Z,14.00
2018-03-19T03:32:50.027Z,14.00
2018-03-19T03:33:21.774Z,14.00
2018-03-19T03:33:53.640Z,13.90
2018-03-19T03:34:25.386Z,13.90
2018-03-19T03:34:57.153Z,14.00
2018-03-19T03:35:29.671Z,14.00
2018-03-19T03:36:01.408Z,14.00
2018-03-19T03:36:33.241Z,14.10
2018-03-19T03:37:04.961Z,14.00
2018-03-19T03:37:36.701Z,14.00
2018-03-19T03:38:09.227Z,14.00
2018-03-19T03:38:40.977Z,14.00
2018-03-19T03:39:12.726Z,14.00
2018-03-19T03:39:44.473Z,14.00
2018-03-19T03:40:16.231Z,14.00
2018-03-19T03:40:48.737Z,14.00
2018-03-19T03:41:20.548Z,14.00
2018-03-19T03:41:52.384Z,14.00
2018-03-19T03:42:24.109Z,14.00
2018-03-19T03:42:55.892Z,14.00
2018-03-19T03:43:28.389Z,14.10
2018-03-19T03:44:00.158Z,14.10
2018-03-19T03:44:31.900Z,14.10
2018-03-19T03:45:03.653Z,14.10
2018-03-19T03:45:35.459Z,14.10
2018-03-19T03:46:07.511Z,14.20
2018-03-19T03:46:39.989Z,14.20
2018-03-19T03:47:11.793Z,14.20
2018-03-19T03:47:43.540Z,14.10
2018-03-19T03:48:15.274Z,14.10
2018-03-19T03:48:47.819Z,14.10
2018-03-19T03:49:19.584Z,14.00
2018-03-19T03:49:51.408Z,14.10
2018-03-19T03:50:23.151Z,14.10
2018-03-19T03:50:54.904Z,14.00
2018-03-19T03:51:26.644Z,14.10
2018-03-19T03:51:58.386Z,14.10
2018-03-19T03:52:30.124Z,14.00
2018-03-19T03:53:01.871Z,14.00
2018-03-19T03:53:33.609Z,14.00
2018-03-19T03:54:05.360Z,14.00
2018-03-19T03:54:38.067Z,14.00
2018-03-19T03:55:09.791Z,14.00
2018-03-19T03:55:42.304Z,14.00
2018-03-19T03:56:14.046Z,13.90
2018-03-19T03:56:45.828Z,14.00
2018-03-19T03:57:17.583Z,13.90
2018-03-19T03:57:49.299Z,13.90
2018-03-19T03:58:21.056Z,13.90
2018-03-19T03:58:52.811Z,14.00
2018-03-19T03:59:25.332Z,14.00
2018-03-19T03:59:57.093Z,14.00
2018-03-19T04:00:28.832Z,14.00
2018-03-19T04:01:00.589Z,14.00
2018-03-19T04:01:32.546Z,14.10
2018-03-19T04:02:04.300Z,14.10
2018-03-19T04:02:36.808Z,14.10
2018-03-19T04:03:08.556Z,14.10
2018-03-19T04:03:40.324Z,14.10
2018-03-19T04:04:12.056Z,14.10
2018-03-19T04:04:43.803Z,14.10
2018-03-19T04:05:15.546Z,14.00
2018-03-19T04:05:47.300Z,14.00
2018-03-19T04:06:19.052Z,14.00
2018-03-19T04:06:50.800Z,14.00
2018-03-19T04:07:22.567Z,14.00
2018-03-19T04:07:55.053Z,14.00
2018-03-19T04:08:26.831Z,13.90
2018-03-19T04:08:58.559Z,14.00
2018-03-19T04:09:30.334Z,14.00
2018-03-19T04:10:02.086Z,14.00
2018-03-19T04:10:33.822Z,14.00
2018-03-19T04:11:05.556Z,14.00
2018-03-19T04:11:37.316Z,13.90
2018-03-19T04:12:09.084Z,14.00
2018-03-19T04:12:40.824Z,14.00
2018-03-19T04:13:13.347Z,14.00
2018-03-19T04:13:45.079Z,14.00
2018-03-19T04:14:16.828Z,14.00
2018-03-19T04:14:48.574Z,14.10
2018-03-19T04:15:20.330Z,14.00
2018-03-19T04:15:52.081Z,14.00
2018-03-19T04:16:24.060Z,14.00
2018-03-19T04:16:56.565Z,14.00
2018-03-19T04:17:28.331Z,14.00
2018-03-19T04:18:00.074Z,13.90
2018-03-19T04:18:31.823Z,14.00
2018-03-19T04:19:03.620Z,14.00
2018-03-19T04:19:35.362Z,14.00
2018-03-19T04:20:07.867Z,14.00
2018-03-19T04:20:39.624Z,14.00
2018-03-19T04:21:11.373Z,14.00
2018-03-19T04:21:43.326Z,14.00
2018-03-19T04:22:15.054Z,14.00
2018-03-19T04:22:46.795Z,14.00
2018-03-19T04:23:18.543Z,14.00
2018-03-19T04:23:50.297Z,13.90
2018-03-19T04:24:22.042Z,13.90
2018-03-19T04:24:53.772Z,13.90
2018-03-19T04:25:25.516Z,13.90
2018-03-19T04:25:57.267Z,13.90
2018-03-19T04:26:29.004Z,13.90
2018-03-19T04:27:00.751Z,13.90
2018-03-19T04:27:32.498Z,13.90
2018-03-19T04:28:04.229Z,13.90
2018-03-19T04:28:35.983Z,14.00
2018-03-19T04:29:07.733Z,14.00
2018-03-19T04:29:39.476Z,14.00
2018-03-19T04:30:11.223Z,14.00
2018-03-19T04:30:43.132Z,14.00
2018-03-19T04:31:15.647Z,13.90
2018-03-19T04:31:47.388Z,13.90
2018-03-19T04:32:19.117Z,14.00
2018-03-19T04:32:50.867Z,14.00
2018-03-19T04:33:22.620Z,14.00
2018-03-19T04:33:54.358Z,14.00
2018-03-19T04:34:26.117Z,14.00
2018-03-19T04:34:57.876Z,14.00
2018-03-19T04:35:29.615Z,14.00
2018-03-19T04:36:01.376Z,14.00
2018-03-19T04:36:33.879Z,14.00
2018-03-19T04:37:05.631Z,14.00
2018-03-19T04:37:37.369Z,14.00
2018-03-19T04:38:09.113Z,14.00
2018-03-19T04:38:40.864Z,14.00
2018-03-19T04:39:12.658Z,14.00
2018-03-19T04:39:44.416Z,14.00
2018-03-19T04:40:16.331Z,14.00
2018-03-19T04:40:48.089Z,14.00
2018-03-19T04:41:20.699Z,14.00
2018-03-19T04:41:52.484Z,14.00
2018-03-19T04:42:24.229Z,14.00
2018-03-19T04:42:55.968Z,14.00
2018-03-19T04:43:27.730Z,13.90
2018-03-19T04:44:00.243Z,13.90
2018-03-19T04:44:31.996Z,13.90
2018-03-19T04:45:03.744Z,13.90
2018-03-19T04:45:35.493Z,13.90
2018-03-19T04:46:07.228Z,13.90
2018-03-19T04:46:38.989Z,13.90
2018-03-19T04:47:10.933Z,13.90
2018-03-19T04:47:42.672Z,13.90
2018-03-19T04:48:14.422Z,13.90
2018-03-19T04:48:46.164Z,14.00
2018-03-19T04:49:17.908Z,14.00
2018-03-19T04:49:49.647Z,14.00
2018-03-19T04:50:21.405Z,14.00
2018-03-19T04:50:53.134Z,14.00
2018-03-19T04:51:24.884Z,14.00
2018-03-19T04:51:56.632Z,14.00
2018-03-19T04:52:28.388Z,14.00
2018-03-19T04:53:00.139Z,14.00
2018-03-19T04:53:32.056Z,14.00
2018-03-19T04:54:03.799Z,14.00
2018-03-19T04:54:35.540Z,14.00
2018-03-19T04:55:07.284Z,14.00
2018-03-19T04:55:39.029Z,14.00
2018-03-19T04:56:10.786Z,14.00
2018-03-19T04:56:42.527Z,14.00
2018-03-19T04:57:14.278Z,14.00
2018-03-19T04:57:46.067Z,14.00
2018-03-19T04:58:17.993Z,14.00
2018-03-19T04:58:49.729Z,14.10
2018-03-19T04:59:21.767Z,14.10
2018-03-19T04:59:53.628Z,14.00
2018-03-19T05:00:25.396Z,14.00
2018-03-19T05:00:57.917Z,14.00
2018-03-19T05:01:29.682Z,14.00
2018-03-19T05:02:01.425Z,14.00
2018-03-19T05:02:33.175Z,14.00
2018-03-19T05:03:04.920Z,14.00
2018-03-19T05:03:36.665Z,13.90
2018-03-19T05:04:08.413Z,13.90
2018-03-19T05:04:40.164Z,14.00
2018-03-19T05:05:11.911Z,14.00
2018-03-19T05:05:45.152Z,14.00
2018-03-19T05:06:16.907Z,14.00
2018-03-19T05:06:48.656Z,13.90
2018-03-19T05:07:20.400Z,14.00
2018-03-19T05:07:52.143Z,14.00
2018-03-19T05:08:23.892Z,14.00
2018-03-19T05:08:55.628Z,13.90
2018-03-19T05:09:27.377Z,13.90
2018-03-19T05:09:59.120Z,13.90
2018-03-19T05:10:30.864Z,13.90
2018-03-19T05:11:02.621Z,14.00
2018-03-19T05:11:34.352Z,14.00
2018-03-19T05:12:06.100Z,13.90
2018-03-19T05:12:37.853Z,13.90
2018-03-19T05:13:09.592Z,13.90
2018-03-19T05:13:41.373Z,13.90
2018-03-19T05:14:13.886Z,13.90
2018-03-19T05:14:45.636Z,13.90
2018-03-19T05:15:17.369Z,13.90
2018-03-19T05:15:49.120Z,13.90
2018-03-19T05:16:20.904Z,14.00
2018-03-19T05:16:53.422Z,14.00
2018-03-19T05:17:25.166Z,13.90
2018-03-19T05:17:56.919Z,13.80
2018-03-19T05:18:28.676Z,13.70
2018-03-19T05:19:00.434Z,13.60
2018-03-19T05:19:32.167Z,13.50
2018-03-19T05:20:03.918Z,13.40
2018-03-19T05:20:35.662Z,13.20
2018-03-19T05:21:07.449Z,13.20
2018-03-19T05:21:39.188Z,13.10
2018-03-19T05:22:10.942Z,13.00
2018-03-19T05:22:42.688Z,13.00
2018-03-19T05:23:14.440Z,12.90
2018-03-19T05:23:46.191Z,12.90
2018-03-19T05:24:17.930Z,12.80
2018-03-19T05:24:49.685Z,12.80
2018-03-19T05:25:21.450Z,12.80
2018-03-19T05:25:53.316Z,12.70
2018-03-19T05:26:25.047Z,12.70
2018-03-19T05:26:56.841Z,12.70
2018-03-19T05:27:28.604Z,12.70
2018-03-19T05:28:01.091Z,12.60
2018-03-19T05:28:32.880Z,12.60
2018-03-19T05:29:04.624Z,12.60
2018-03-19T05:29:37.135Z,12.50
2018-03-19T05:30:08.908Z,12.60
2018-03-19T05:30:40.645Z,12.60
2018-03-19T05:31:12.400Z,12.50
2018-03-19T05:31:44.149Z,12.50
2018-03-19T05:32:16.663Z,12.60
2018-03-19T05:32:48.504Z,12.50
2018-03-19T05:33:20.297Z,12.60
2018-03-19T05:33:52.258Z,12.60
2018-03-19T05:34:24.777Z,12.60
2018-03-19T05:34:56.520Z,12.60
2018-03-19T05:35:28.272Z,12.50
2018-03-19T05:36:00.036Z,12.50
2018-03-19T05:36:31.784Z,12.60
2018-03-19T05:37:03.537Z,12.50
2018-03-19T05:37:35.274Z,12.50
2018-03-19T05:38:07.004Z,12.50
2018-03-19T05:38:38.788Z,12.50
2018-03-19T05:39:10.725Z,12.50
2018-03-19T05:39:42.454Z,12.50
2018-03-19T05:40:14.223Z,12.40
2018-03-19T05:40:46.720Z,12.40
2018-03-19T05:41:18.457Z,12.40
2018-03-19T05:41:50.211Z,12.40
2018-03-19T05:42:21.958Z,12.40
2018-03-19T05:42:53.709Z,12.40
2018-03-19T05:43:25.455Z,12.40
2018-03-19T05:43:57.206Z,12.40
2018-03-19T05:44:28.969Z,12.40
2018-03-19T05:45:00.708Z,12.40
2018-03-19T05:45:32.498Z,12.40
2018-03-19T05:46:04.247Z,12.40
2018-03-19T05:46:35.986Z,12.60
2018-03-19T05:47:07.736Z,12.60
2018-03-19T05:47:39.475Z,12.60
2018-03-19T05:48:11.250Z,12.60
2018-03-19T05:48:43.172Z,12.60
2018-03-19T05:49:15.875Z,12.60
2018-03-19T05:49:47.668Z,12.50
2018-03-19T05:50:20.023Z,12.60
2018-03-19T05:50:52.557Z,12.50
2018-03-19T05:51:24.303Z,12.50
2018-03-19T05:51:56.100Z,12.50
2018-03-19T05:52:27.864Z,12.50
2018-03-19T05:52:59.625Z,12.40
2018-03-19T05:53:31.378Z,12.40
2018-03-19T05:54:03.171Z,12.40
2018-03-19T05:54:34.923Z,12.40
2018-03-19T05:55:06.684Z,12.40
2018-03-19T05:55:38.447Z,12.40
2018-03-19T05:56:10.202Z,12.30
2018-03-19T05:56:41.949Z,12.30
2018-03-19T05:57:13.693Z,12.30
2018-03-19T05:57:45.449Z,12.30
2018-03-19T05:58:17.189Z,12.30
2018-03-19T05:58:48.935Z,12.30
2018-03-19T05:59:20.664Z,12.30
2018-03-19T05:59:52.463Z,12.30
2018-03-19T06:00:24.214Z,12.30
2018-03-19T06:00:55.952Z,12.30
2018-03-19T06:01:27.717Z,12.30
2018-03-19T06:01:59.487Z,12.30
2018-03-19T06:02:31.232Z,12.30
2018-03-19T06:03:02.973Z,12.30
2018-03-19T06:03:34.740Z,12.30
2018-03-19T06:04:06.493Z,12.30
2018-03-19T06:04:38.249Z,12.30
2018-03-19T06:05:10.821Z,12.30
2018-03-19T06:05:42.541Z,12.20
2018-03-19T06:06:14.300Z,12.30
2018-03-19T06:06:46.881Z,12.30
2018-03-19T06:07:19.380Z,12.20
2018-03-19T06:07:51.156Z,12.20
2018-03-19T06:08:22.897Z,12.20
2018-03-19T06:08:54.643Z,12.20
2018-03-19T06:09:26.392Z,12.20
2018-03-19T06:09:58.132Z,12.20
2018-03-19T06:10:29.887Z,12.20
2018-03-19T06:11:01.836Z,12.20
2018-03-19T06:11:33.812Z,12.20
2018-03-19T06:12:05.560Z,12.20
2018-03-19T06:12:37.305Z,12.20
2018-03-19T06:13:09.048Z,12.20
2018-03-19T06:13:40.804Z,12.20
2018-03-19T06:14:12.573Z,12.20
2018-03-19T06:14:44.350Z,12.20
2018-03-19T06:15:16.113Z,12.20
2018-03-19T06:15:48.626Z,12.20
2018-03-19T06:16:20.374Z,12.20
2018-03-19T06:16:52.160Z,12.20
2018-03-19T06:17:24.093Z,12.30
2018-03-19T06:17:55.832Z,12.20
2018-03-19T06:18:27.583Z,12.20
2018-03-19T06:18:59.364Z,12.20
2018-03-19T06:19:31.115Z,12.20
2018-03-19T06:20:02.849Z,12.20
2018-03-19T06:20:34.604Z,12.20
2018-03-19T06:21:06.347Z,12.20
2018-03-19T06:21:38.103Z,12.20
2018-03-19T06:22:09.844Z,12.20
2018-03-19T06:22:41.594Z,12.10
2018-03-19T06:23:13.724Z,12.10
2018-03-19T06:23:45.732Z,12.10
2018-03-19T06:24:17.502Z,12.10
2018-03-19T06:24:49.460Z,12.10
2018-03-19T06:25:21.242Z,12.10
2018-03-19T06:25:52.974Z,12.10
2018-03-19T06:26:24.719Z,12.10
2018-03-19T06:26:56.499Z,12.10
2018-03-19T06:27:28.248Z,12.20
2018-03-19T06:28:00.019Z,12.10
2018-03-19T06:28:32.570Z,12.10
2018-03-19T06:29:04.320Z,12.10
2018-03-19T06:29:36.857Z,12.20
2018-03-19T06:30:08.602Z,12.20
2018-03-19T06:30:40.357Z,12.20
2018-03-19T06:31:12.159Z,12.20
2018-03-19T06:31:44.536Z,12.10
2018-03-19T06:32:16.465Z,12.10
2018-03-19T06:32:48.204Z,12.10
2018-03-19T06:33:19.949Z,12.10
2018-03-19T06:33:51.699Z,12.10
2018-03-19T06:34:23.696Z,12.10
2018-03-19T06:34:55.587Z,12.10
2018-03-19T06:35:27.320Z,12.10
2018-03-19T06:35:59.080Z,12.10
2018-03-19T06:36:30.811Z,12.00
2018-03-19T06:37:02.568Z,12.10
2018-03-19T06:37:34.379Z,12.10
2018-03-19T06:38:06.901Z,12.10
2018-03-19T06:38:38.661Z,12.00
2018-03-19T06:39:10.458Z,12.00
2018-03-19T06:39:42.973Z,12.00
2018-03-19T06:40:14.715Z,12.00
2018-03-19T06:40:46.492Z,12.00
2018-03-19T06:41:19.006Z,11.90
2018-03-19T06:41:50.746Z,12.00
2018-03-19T06:42:22.512Z,11.90
2018-03-19T06:42:54.318Z,12.00
2018-03-19T06:43:26.790Z,12.00
2018-03-19T06:43:58.576Z,11.90
2018-03-19T06:44:30.344Z,12.00
2018-03-19T06:45:02.861Z,12.00
2018-03-19T06:45:34.660Z,12.00
2018-03-19T06:46:06.633Z,12.00
2018-03-19T06:46:38.499Z,12.00
2018-03-19T06:47:10.238Z,12.00
2018-03-19T06:47:42.010Z,12.00
2018-03-19T06:48:13.769Z,12.00
2018-03-19T06:48:45.517Z,12.00
2018-03-19T06:49:18.024Z,12.00
2018-03-19T06:49:49.813Z,12.00
2018-03-19T06:50:21.728Z,12.00